Terminal Aerodrome Forecast
Issued by NWS

Home | Current Version | Previous Version | Text Only | Print | Product List | Glossary On
Versions: 1 2 3 4 5 6 7 8 9 10 11 12 13 14 15 16 17 18 19 20 21 22 23 24 25 26 27 28 29 30 31 32 33
000
FTUS46 KOTX 301138
TAFCOE
TAF
KCOE 301138Z 3012/3112 20004KT P6SM SCT020 SCT100
      TEMPO 3014/3017 BKN020
     FM301900 26006KT P6SM VCSH BKN030 BKN080
     FM302200 30007KT P6SM -SHRA BKN035 OVC080
     FM310100 34006KT P6SM BKN040 BKN090
     FM310300 02008KT P6SM SCT040 SCT150=

USA.gov is the U.S. government's official web portal to all federal, state and local government web resources and services.